createdAt,value
2023-01-19T00:00:08.397Z,12.37
2023-01-19T00:02:35.727Z,12.50
2023-01-19T00:05:21.943Z,13.07
2023-01-19T00:07:49.289Z,12.67
2023-01-19T00:10:16.740Z,12.47
2023-01-19T00:12:44.053Z,12.67
2023-01-19T00:15:11.628Z,12.60
2023-01-19T00:17:41.069Z,12.23
2023-01-19T00:20:10.069Z,13.40
2023-01-19T00:22:37.475Z,12.30
2023-01-19T00:25:04.823Z,11.97
2023-01-19T00:27:34.951Z,12.63
2023-01-19T00:30:02.779Z,12.20
2023-01-19T00:32:30.088Z,12.77
2023-01-19T00:34:57.322Z,12.27
2023-01-19T00:37:24.629Z,12.77
2023-01-19T00:39:51.864Z,12.00
2023-01-19T00:42:37.606Z,12.73
2023-01-19T00:45:05.228Z,14.27
2023-01-19T00:47:33.298Z,14.77
2023-01-19T00:50:00.738Z,15.30
2023-01-19T00:52:28.315Z,13.80
2023-01-19T00:54:55.613Z,13.63
2023-01-19T00:57:23.615Z,12.73
2023-01-19T00:59:51.122Z,19.17
2023-01-19T01:02:18.459Z,16.03
2023-01-19T01:04:45.935Z,11.53
2023-01-19T01:07:13.154Z,11.07
2023-01-19T01:09:40.389Z,11.20
2023-01-19T01:12:07.805Z,11.90
2023-01-19T01:14:35.147Z,10.93
2023-01-19T01:17:02.359Z,11.23
2023-01-19T01:19:29.595Z,11.40
2023-01-19T01:21:56.894Z,11.90
2023-01-19T01:24:24.147Z,11.23
2023-01-19T01:26:51.391Z,12.57
2023-01-19T01:29:18.609Z,12.27
2023-01-19T01:31:46.043Z,12.40
2023-01-19T01:34:13.575Z,13.13
2023-01-19T01:36:40.770Z,13.00
2023-01-19T01:39:08.053Z,12.20
2023-01-19T01:41:35.267Z,11.83
2023-01-19T01:44:06.291Z,13.00
2023-01-19T01:46:33.683Z,12.83
2023-01-19T01:49:06.617Z,12.30
2023-01-19T01:51:54.129Z,12.10
2023-01-19T01:54:27.685Z,12.90
2023-01-19T01:56:57.007Z,12.10
2023-01-19T01:59:27.213Z,12.07
2023-01-19T02:02:17.227Z,12.07
2023-01-19T02:04:48.346Z,12.10
2023-01-19T02:07:36.482Z,11.80
2023-01-19T02:10:23.660Z,11.13
2023-01-19T02:13:10.261Z,11.93
2023-01-19T02:15:37.618Z,10.70
2023-01-19T02:18:04.880Z,11.00
2023-01-19T02:20:32.545Z,11.83
2023-01-19T02:23:03.013Z,10.50
2023-01-19T02:25:30.458Z,11.17
2023-01-19T02:27:57.765Z,11.00
2023-01-19T02:30:25.677Z,10.43
2023-01-19T02:32:53.314Z,10.90
2023-01-19T02:35:20.911Z,10.60
2023-01-19T02:37:52.877Z,10.50
2023-01-19T02:40:22.064Z,10.30
2023-01-19T02:42:50.731Z,9.63
2023-01-19T02:45:20.686Z,9.60
2023-01-19T02:47:52.179Z,11.00
2023-01-19T02:50:50.674Z,10.47
2023-01-19T02:53:23.630Z,10.53
2023-01-19T02:56:06.206Z,11.27
2023-01-19T02:58:50.448Z,11.00
2023-01-19T03:01:24.868Z,10.87
2023-01-19T03:03:55.044Z,11.33
2023-01-19T03:06:25.051Z,11.00
2023-01-19T03:09:03.322Z,11.30
2023-01-19T03:11:34.223Z,11.37
2023-01-19T03:14:15.708Z,11.13
2023-01-19T03:16:50.559Z,12.17
2023-01-19T03:19:29.291Z,11.23
2023-01-19T03:22:01.671Z,11.77
2023-01-19T03:24:36.910Z,11.33
2023-01-19T03:27:11.145Z,12.03
2023-01-19T03:29:39.450Z,12.40
2023-01-19T03:32:12.699Z,12.70
2023-01-19T03:34:40.493Z,12.40
2023-01-19T03:37:08.284Z,12.33
2023-01-19T03:39:35.577Z,13.20
2023-01-19T03:42:05.170Z,13.70
2023-01-19T03:44:34.377Z,13.07
2023-01-19T03:47:01.871Z,13.17
2023-01-19T03:49:31.670Z,13.97
2023-01-19T03:51:59.388Z,13.20
2023-01-19T03:54:27.238Z,12.57
2023-01-19T03:56:54.521Z,12.43
2023-01-19T03:59:21.891Z,13.03
2023-01-19T04:01:49.803Z,13.03
2023-01-19T04:04:17.164Z,12.73
2023-01-19T04:06:44.655Z,13.13
2023-01-19T04:09:12.029Z,12.80
2023-01-19T04:11:39.286Z,12.60
2023-01-19T04:14:06.715Z,13.10
2023-01-19T04:16:33.944Z,12.23
2023-01-19T04:19:01.143Z,11.80
2023-01-19T04:21:28.419Z,12.07
2023-01-19T04:23:55.621Z,12.53
2023-01-19T04:26:24.033Z,12.20
2023-01-19T04:28:51.529Z,12.03
2023-01-19T04:31:19.446Z,12.03
2023-01-19T04:33:46.740Z,12.13
2023-01-19T04:36:13.981Z,11.30
2023-01-19T04:38:41.440Z,11.77
2023-01-19T04:41:08.661Z,12.30
2023-01-19T04:43:35.948Z,11.10
2023-01-19T04:46:03.373Z,11.30
2023-01-19T04:48:30.602Z,11.77
2023-01-19T04:50:57.816Z,10.77
2023-01-19T04:53:25.090Z,11.43
2023-01-19T04:55:55.754Z,11.53
2023-01-19T04:58:23.073Z,10.60
2023-01-19T05:00:51.259Z,11.20
2023-01-19T05:03:19.414Z,10.80
2023-01-19T05:05:47.283Z,10.53
2023-01-19T05:08:14.988Z,11.13
2023-01-19T05:10:42.338Z,11.23
2023-01-19T05:13:09.558Z,10.87
2023-01-19T05:15:36.813Z,12.70
2023-01-19T05:18:23.185Z,12.27
2023-01-19T05:20:50.669Z,11.53
2023-01-19T05:23:17.976Z,11.97
2023-01-19T05:25:45.740Z,11.90
2023-01-19T05:28:13.102Z,11.47
2023-01-19T05:30:40.364Z,11.30
2023-01-19T05:33:07.178Z,10.90
2023-01-19T05:35:36.164Z,9.90
2023-01-19T05:38:04.155Z,10.47
2023-01-19T05:40:31.015Z,10.47
2023-01-19T05:43:01.045Z,10.10
2023-01-19T05:45:28.605Z,10.43
2023-01-19T05:48:14.388Z,9.93
2023-01-19T05:50:41.208Z,9.90
2023-01-19T05:53:08.129Z,10.00
2023-01-19T05:55:34.989Z,10.17
2023-01-19T05:58:02.105Z,10.33
2023-01-19T06:00:29.169Z,10.30
2023-01-19T06:02:56.282Z,10.33
2023-01-19T06:05:23.080Z,49.63
2023-01-19T06:07:49.920Z,28.27
2023-01-19T06:10:16.987Z,27.80
2023-01-19T06:12:44.039Z,11.37
2023-01-19T06:15:11.449Z,10.40
2023-01-19T06:17:38.298Z,10.97
2023-01-19T06:20:05.620Z,9.87
2023-01-19T06:22:32.629Z,10.10
2023-01-19T06:25:02.171Z,9.23
2023-01-19T06:27:29.380Z,10.03
2023-01-19T06:29:56.230Z,8.73
2023-01-19T06:32:23.055Z,8.90
2023-01-19T06:34:50.105Z,8.83
2023-01-19T06:37:17.529Z,8.43
2023-01-19T06:39:45.420Z,7.80
2023-01-19T06:42:12.364Z,8.33
2023-01-19T06:44:43.524Z,8.13
2023-01-19T06:47:15.219Z,7.37
2023-01-19T06:49:42.901Z,7.90
2023-01-19T06:52:11.451Z,7.67
2023-01-19T06:54:38.299Z,7.07
2023-01-19T06:57:05.421Z,7.50
2023-01-19T06:59:32.255Z,7.27
2023-01-19T07:01:59.310Z,7.57
2023-01-19T07:04:27.093Z,7.17
2023-01-19T07:06:54.055Z,7.07
2023-01-19T07:09:21.395Z,6.83
2023-01-19T07:11:49.186Z,7.37
2023-01-19T07:14:16.604Z,6.90
2023-01-19T07:16:43.655Z,7.20
2023-01-19T07:19:10.832Z,7.33
2023-01-19T07:21:37.781Z,6.47
2023-01-19T07:24:04.828Z,6.80
2023-01-19T07:26:31.678Z,7.50
2023-01-19T07:28:58.472Z,6.93
2023-01-19T07:31:25.567Z,6.53
2023-01-19T07:33:52.496Z,6.87
2023-01-19T07:36:19.392Z,6.70
2023-01-19T07:38:46.205Z,6.10
2023-01-19T07:41:14.155Z,6.73
2023-01-19T07:43:41.365Z,6.90
2023-01-19T07:46:08.617Z,6.67
2023-01-19T07:48:35.858Z,6.90
2023-01-19T07:51:17.886Z,7.00
2023-01-19T07:53:46.136Z,6.47
2023-01-19T07:56:13.383Z,7.10
2023-01-19T07:58:40.433Z,6.33
2023-01-19T08:01:13.222Z,6.23
2023-01-19T08:03:40.179Z,6.33
2023-01-19T08:06:07.735Z,5.93
2023-01-19T08:08:35.116Z,5.50
2023-01-19T08:11:02.235Z,6.27
2023-01-19T08:13:29.207Z,6.23
2023-01-19T08:15:56.068Z,6.37
2023-01-19T08:18:22.905Z,6.43
2023-01-19T08:20:49.818Z,7.40
2023-01-19T08:23:18.065Z,7.37
2023-01-19T08:25:45.367Z,6.90
2023-01-19T08:28:14.978Z,6.40
2023-01-19T08:30:44.298Z,6.97
2023-01-19T08:33:12.444Z,6.03
2023-01-19T08:35:42.216Z,6.53
2023-01-19T08:38:10.732Z,6.37
2023-01-19T08:40:40.410Z,6.20
2023-01-19T08:43:13.215Z,6.67
2023-01-19T08:45:48.033Z,6.17
2023-01-19T08:48:22.208Z,6.67
2023-01-19T08:50:50.231Z,6.60
2023-01-19T08:53:18.183Z,6.10
2023-01-19T08:55:44.983Z,6.10
2023-01-19T08:58:11.851Z,6.03
2023-01-19T09:00:39.602Z,6.37
2023-01-19T09:03:08.819Z,6.43
2023-01-19T09:05:55.561Z,6.10
2023-01-19T09:08:22.372Z,6.67
2023-01-19T09:11:11.483Z,5.73
2023-01-19T09:13:38.557Z,6.40
2023-01-19T09:16:09.416Z,5.83
2023-01-19T09:18:36.329Z,5.37
2023-01-19T09:21:07.064Z,6.20
2023-01-19T09:23:34.489Z,6.03
2023-01-19T09:26:03.132Z,5.87
2023-01-19T09:28:30.176Z,5.70
2023-01-19T09:30:57.548Z,5.83
2023-01-19T09:33:24.749Z,5.47
2023-01-19T09:35:52.301Z,5.40
2023-01-19T09:38:20.330Z,5.50
2023-01-19T09:40:53.789Z,5.03
2023-01-19T09:43:42.957Z,4.80
2023-01-19T09:46:18.710Z,4.63
2023-01-19T09:48:47.582Z,5.00
2023-01-19T09:51:21.868Z,5.07
2023-01-19T09:54:04.196Z,5.03
2023-01-19T09:56:32.252Z,4.83
2023-01-19T09:59:00.144Z,4.90
2023-01-19T10:01:56.611Z,4.80
2023-01-19T10:04:45.155Z,4.83
2023-01-19T10:07:26.791Z,4.23
2023-01-19T10:10:21.955Z,5.37
2023-01-19T10:13:02.757Z,4.70
2023-01-19T10:15:35.734Z,5.27
2023-01-19T10:18:13.219Z,4.60
2023-01-19T10:20:54.445Z,4.57
2023-01-19T10:23:39.673Z,5.00
2023-01-19T10:26:17.212Z,5.00
2023-01-19T10:28:48.065Z,4.50
2023-01-19T10:31:19.158Z,5.00
2023-01-19T10:33:46.315Z,5.23
2023-01-19T10:36:18.482Z,5.10
2023-01-19T10:38:47.051Z,5.40
2023-01-19T10:41:41.967Z,5.13
2023-01-19T10:44:10.763Z,4.93
2023-01-19T10:46:46.032Z,5.70
2023-01-19T10:49:37.419Z,4.97
2023-01-19T10:52:07.143Z,5.10
2023-01-19T10:54:36.853Z,4.33
2023-01-19T10:57:05.688Z,4.80
2023-01-19T10:59:35.431Z,4.40
2023-01-19T11:02:21.768Z,4.50
2023-01-19T11:04:51.379Z,4.50
2023-01-19T11:07:20.697Z,4.37
2023-01-19T11:09:48.352Z,4.80
2023-01-19T11:12:20.904Z,4.67
2023-01-19T11:14:49.414Z,4.87
2023-01-19T11:17:21.460Z,5.47
2023-01-19T11:20:02.817Z,4.70
2023-01-19T11:22:34.231Z,4.47
2023-01-19T11:25:02.429Z,4.73
2023-01-19T11:27:30.626Z,3.80
2023-01-19T11:30:10.391Z,4.60
2023-01-19T11:32:37.685Z,4.47
2023-01-19T11:35:23.605Z,3.80
2023-01-19T11:37:50.850Z,4.87
2023-01-19T11:40:18.160Z,3.97
2023-01-19T11:42:45.551Z,4.60
2023-01-19T11:45:18.384Z,4.57
2023-01-19T11:47:47.156Z,4.67
2023-01-19T11:50:17.356Z,4.50
2023-01-19T11:52:46.995Z,5.10
2023-01-19T11:55:14.857Z,4.50
2023-01-19T11:57:46.963Z,4.90
2023-01-19T12:00:36.023Z,4.80
2023-01-19T12:03:22.348Z,4.47
2023-01-19T12:05:52.187Z,4.90
2023-01-19T12:08:21.774Z,5.47
2023-01-19T12:10:49.855Z,4.97
2023-01-19T12:13:24.815Z,5.00
2023-01-19T12:15:55.090Z,4.53
2023-01-19T12:18:23.377Z,4.37
2023-01-19T12:20:54.716Z,4.67
2023-01-19T12:23:27.797Z,4.60
2023-01-19T12:26:04.010Z,4.87
2023-01-19T12:28:32.976Z,4.10
2023-01-19T12:31:01.725Z,4.47
2023-01-19T12:33:29.293Z,4.17
2023-01-19T12:35:57.132Z,4.53
2023-01-19T12:38:24.328Z,3.60
2023-01-19T12:40:51.565Z,4.13
2023-01-19T12:43:18.818Z,3.40
2023-01-19T12:45:48.075Z,3.30
2023-01-19T12:48:25.299Z,3.20
2023-01-19T12:50:52.548Z,3.27
2023-01-19T12:53:21.279Z,3.07
2023-01-19T12:55:59.833Z,3.17
2023-01-19T12:58:27.530Z,3.03
2023-01-19T13:01:15.268Z,2.40
2023-01-19T13:03:44.212Z,2.77
2023-01-19T13:06:11.498Z,3.60
2023-01-19T13:08:58.231Z,3.13
2023-01-19T13:11:27.857Z,2.93
2023-01-19T13:13:59.673Z,3.03
2023-01-19T13:16:27.533Z,3.70
2023-01-19T13:18:54.806Z,2.80
2023-01-19T13:21:31.271Z,3.33
2023-01-19T13:24:00.102Z,2.97
2023-01-19T13:26:35.092Z,3.30
2023-01-19T13:29:05.419Z,3.40
2023-01-19T13:31:40.209Z,3.17
2023-01-19T13:34:15.326Z,2.87
2023-01-19T13:36:46.998Z,2.90
2023-01-19T13:39:18.847Z,3.07
2023-01-19T13:41:46.728Z,2.87
2023-01-19T13:44:17.658Z,3.07
2023-01-19T13:46:46.072Z,2.67
2023-01-19T13:49:17.773Z,3.23
2023-01-19T13:51:45.265Z,3.17
2023-01-19T13:54:17.586Z,4.07
2023-01-19T13:56:50.915Z,3.10
2023-01-19T13:59:18.224Z,3.40
2023-01-19T14:01:46.572Z,3.13
2023-01-19T14:04:34.115Z,3.07
2023-01-19T14:07:02.907Z,3.20
2023-01-19T14:09:30.309Z,3.03
2023-01-19T14:12:08.527Z,2.90
2023-01-19T14:14:35.914Z,2.90
2023-01-19T14:17:03.241Z,2.80
2023-01-19T14:19:30.670Z,3.00
2023-01-19T14:22:05.292Z,3.07
2023-01-19T14:24:33.232Z,3.07
2023-01-19T14:27:19.393Z,2.93
2023-01-19T14:29:47.496Z,3.00
2023-01-19T14:32:14.838Z,3.10
2023-01-19T14:34:51.196Z,3.40
2023-01-19T14:37:29.006Z,3.00
2023-01-19T14:40:04.466Z,3.80
2023-01-19T14:42:33.407Z,3.30
2023-01-19T14:45:01.867Z,3.53
2023-01-19T14:47:39.473Z,3.20
2023-01-19T14:50:19.592Z,3.50
2023-01-19T14:53:02.432Z,3.47
2023-01-19T14:55:34.472Z,3.90
2023-01-19T14:58:01.939Z,3.80
2023-01-19T15:00:29.205Z,3.77
2023-01-19T15:02:56.517Z,3.83
2023-01-19T15:05:23.891Z,4.17
2023-01-19T15:07:53.146Z,4.00
2023-01-19T15:10:22.424Z,4.20
2023-01-19T15:12:50.773Z,4.73
2023-01-19T15:15:19.592Z,4.00
2023-01-19T15:17:46.984Z,4.67
2023-01-19T15:20:19.211Z,3.90
2023-01-19T15:22:46.531Z,4.10
2023-01-19T15:25:14.964Z,4.63
2023-01-19T15:27:42.880Z,4.30
2023-01-19T15:30:17.332Z,4.33
2023-01-19T15:32:44.936Z,4.00
2023-01-19T15:35:16.474Z,4.37
2023-01-19T15:37:43.858Z,4.30
2023-01-19T15:40:45.187Z,4.77
2023-01-19T15:43:12.508Z,4.60
2023-01-19T15:45:42.647Z,5.70
2023-01-19T15:48:11.233Z,5.30
2023-01-19T15:50:43.129Z,5.40
2023-01-19T15:53:36.909Z,4.47
2023-01-19T15:56:04.189Z,4.53
2023-01-19T15:58:31.751Z,5.13
2023-01-19T16:01:00.087Z,4.87
2023-01-19T16:03:27.445Z,5.37
2023-01-19T16:05:54.715Z,5.60
2023-01-19T16:08:22.115Z,5.57
2023-01-19T16:10:49.432Z,5.50
2023-01-19T16:13:16.700Z,5.10
2023-01-19T16:15:44.050Z,5.10
2023-01-19T16:18:11.343Z,5.40
2023-01-19T16:20:38.599Z,5.20
2023-01-19T16:23:21.111Z,5.47
2023-01-19T16:26:04.856Z,6.00
2023-01-19T16:28:32.605Z,5.70
2023-01-19T16:31:00.048Z,5.40
2023-01-19T16:33:27.258Z,5.60
2023-01-19T16:35:54.541Z,6.40
2023-01-19T16:38:23.369Z,5.77
2023-01-19T16:40:50.637Z,5.87
2023-01-19T16:43:18.592Z,5.73
2023-01-19T16:46:02.743Z,6.20
2023-01-19T16:48:32.243Z,5.70
2023-01-19T16:51:06.460Z,6.07
2023-01-19T16:53:35.819Z,5.57
2023-01-19T16:56:06.972Z,5.90
2023-01-19T16:58:34.908Z,5.60
2023-01-19T17:01:06.549Z,5.60
2023-01-19T17:03:33.851Z,6.10
2023-01-19T17:06:01.106Z,5.60
2023-01-19T17:08:28.380Z,5.30
2023-01-19T17:10:56.139Z,5.30
2023-01-19T17:13:23.443Z,5.87
2023-01-19T17:15:51.146Z,5.20
2023-01-19T17:18:18.451Z,5.43
2023-01-19T17:20:45.688Z,5.00
2023-01-19T17:23:12.943Z,5.53
2023-01-19T17:25:40.382Z,4.97
2023-01-19T17:28:07.692Z,5.70
2023-01-19T17:30:35.044Z,5.60
2023-01-19T17:33:02.306Z,5.77
2023-01-19T17:35:30.029Z,5.73
2023-01-19T17:37:58.308Z,5.53
2023-01-19T17:40:26.203Z,5.10
2023-01-19T17:42:53.473Z,5.77
2023-01-19T17:48:05.854Z,5.00
2023-01-19T17:50:34.629Z,4.87
2023-01-19T17:53:01.890Z,5.30
2023-01-19T17:55:29.126Z,5.30
2023-01-19T17:57:56.349Z,5.07
2023-01-19T18:00:23.784Z,5.20
2023-01-19T18:02:51.916Z,4.97
2023-01-19T18:05:19.353Z,5.30
2023-01-19T18:07:47.010Z,5.37
2023-01-19T18:10:14.618Z,5.53
2023-01-19T18:12:42.108Z,5.40
2023-01-19T18:15:09.799Z,6.17
2023-01-19T18:17:37.147Z,6.50
2023-01-19T18:20:04.689Z,6.73
2023-01-19T18:22:32.230Z,6.00
2023-01-19T18:25:01.547Z,7.13
2023-01-19T18:27:29.392Z,5.97
2023-01-19T18:29:56.800Z,6.50
2023-01-19T18:32:26.393Z,6.77
2023-01-19T18:34:54.427Z,7.97
2023-01-19T18:37:21.740Z,8.20
2023-01-19T18:39:49.099Z,8.93
2023-01-19T18:42:16.423Z,9.63
2023-01-19T18:44:43.870Z,9.80
2023-01-19T18:47:11.223Z,9.50
2023-01-19T18:49:38.588Z,9.87
2023-01-19T18:52:06.121Z,10.87
2023-01-19T18:54:33.375Z,9.63
2023-01-19T18:57:00.867Z,10.73
2023-01-19T18:59:28.405Z,10.33
2023-01-19T19:01:55.978Z,11.00
2023-01-19T19:04:23.237Z,10.13
2023-01-19T19:06:50.614Z,9.20
2023-01-19T19:09:17.875Z,10.00
2023-01-19T19:11:45.212Z,9.90
2023-01-19T19:14:12.517Z,10.20
2023-01-19T19:16:39.942Z,10.47
2023-01-19T19:19:11.877Z,9.47
2023-01-19T19:21:39.130Z,10.03
2023-01-19T19:24:06.692Z,9.53
2023-01-19T19:26:34.130Z,9.63
2023-01-19T19:29:02.229Z,10.27
2023-01-19T19:31:30.293Z,10.93
2023-01-19T19:33:58.627Z,10.33
2023-01-19T19:36:26.783Z,10.53
2023-01-19T19:38:54.473Z,10.50
2023-01-19T19:41:23.149Z,9.73
2023-01-19T19:43:51.190Z,10.70
2023-01-19T19:46:20.277Z,12.20
2023-01-19T19:48:48.497Z,12.00
2023-01-19T19:51:19.051Z,11.67
2023-01-19T19:54:05.463Z,10.87
2023-01-19T19:56:34.378Z,9.53
2023-01-19T19:59:01.761Z,9.07
2023-01-19T20:01:32.607Z,9.90
2023-01-19T20:04:04.690Z,8.83
2023-01-19T20:06:37.327Z,8.07
2023-01-19T20:09:08.553Z,8.60
2023-01-19T20:11:36.299Z,8.10
2023-01-19T20:14:07.412Z,7.80
2023-01-19T20:16:35.119Z,8.27
2023-01-19T20:19:02.921Z,7.23
2023-01-19T20:21:31.517Z,7.53
2023-01-19T20:24:04.216Z,7.13
2023-01-19T20:26:32.699Z,7.17
2023-01-19T20:29:03.038Z,7.27
2023-01-19T20:31:31.739Z,7.37
2023-01-19T20:34:00.732Z,7.10
2023-01-19T20:36:28.985Z,7.70
2023-01-19T20:38:56.511Z,8.23
2023-01-19T20:41:24.329Z,7.13
2023-01-19T20:43:52.102Z,6.93
2023-01-19T20:46:19.781Z,6.97
2023-01-19T20:48:52.767Z,6.90
2023-01-19T20:51:20.480Z,7.30
2023-01-19T20:53:48.439Z,7.13
2023-01-19T20:56:16.987Z,7.63
2023-01-19T20:58:44.838Z,7.40
2023-01-19T21:01:13.550Z,9.63
2023-01-19T21:03:41.046Z,8.40
2023-01-19T21:06:08.578Z,8.07
2023-01-19T21:08:36.215Z,7.97
2023-01-19T21:11:03.701Z,8.07
2023-01-19T21:13:31.634Z,8.27
2023-01-19T21:15:59.341Z,9.00
2023-01-19T21:18:28.021Z,9.13
2023-01-19T21:20:57.580Z,8.97
2023-01-19T21:23:29.088Z,8.93
2023-01-19T21:25:58.339Z,8.50
2023-01-19T21:28:26.699Z,9.33
2023-01-19T21:30:54.939Z,9.40
2023-01-19T21:33:22.468Z,8.00
2023-01-19T21:35:54.000Z,8.93
2023-01-19T21:38:21.759Z,8.47
2023-01-19T21:40:50.350Z,8.40
2023-01-19T21:43:19.289Z,9.30
2023-01-19T21:45:47.285Z,9.83
2023-01-19T21:48:14.630Z,9.67
2023-01-19T21:50:42.454Z,9.03
2023-01-19T21:53:11.327Z,9.83
2023-01-19T21:55:39.332Z,9.70
2023-01-19T21:58:06.803Z,8.83
2023-01-19T22:00:34.587Z,9.67
2023-01-19T22:05:47.042Z,9.33
2023-01-19T22:08:14.475Z,10.53
2023-01-19T22:10:41.895Z,9.77
2023-01-19T22:13:09.492Z,9.23
2023-01-19T22:15:36.814Z,10.13
2023-01-19T22:18:04.120Z,9.27
2023-01-19T22:20:31.364Z,9.27
2023-01-19T22:22:58.773Z,10.30
2023-01-19T22:25:27.951Z,10.00
2023-01-19T22:27:55.979Z,9.80
2023-01-19T22:30:23.356Z,10.20
2023-01-19T22:32:50.752Z,10.27
2023-01-19T22:35:18.030Z,10.40
2023-01-19T22:37:45.272Z,9.93
2023-01-19T22:40:12.721Z,10.50
2023-01-19T22:42:40.166Z,10.37
2023-01-19T22:45:07.782Z,9.77
2023-01-19T22:47:35.018Z,10.57
2023-01-19T22:50:02.244Z,11.00
2023-01-19T22:52:30.040Z,10.77
2023-01-19T22:54:58.219Z,9.97
2023-01-19T22:57:25.509Z,10.30
2023-01-19T22:59:52.771Z,10.60
2023-01-19T23:02:21.013Z,9.60
2023-01-19T23:04:48.466Z,10.60
2023-01-19T23:07:15.803Z,9.80
2023-01-19T23:09:43.061Z,9.93
2023-01-19T23:12:10.273Z,10.20
2023-01-19T23:14:37.611Z,10.23
2023-01-19T23:17:04.935Z,9.87
2023-01-19T23:19:32.236Z,10.93
2023-01-19T23:21:59.466Z,11.07
2023-01-19T23:24:26.826Z,10.43
2023-01-19T23:26:54.055Z,10.77
2023-01-19T23:29:21.321Z,10.80
2023-01-19T23:31:49.493Z,10.40
2023-01-19T23:34:17.038Z,11.00
2023-01-19T23:36:44.756Z,10.67
2023-01-19T23:39:16.648Z,10.73
2023-01-19T23:41:43.839Z,10.80
2023-01-19T23:44:11.058Z,10.77
2023-01-19T23:46:38.820Z,10.57
2023-01-19T23:49:06.364Z,10.20
2023-01-19T23:51:34.109Z,10.50
2023-01-19T23:54:01.927Z,10.17
2023-01-19T23:56:30.707Z,10.90
2023-01-19T23:59:02.172Z,10.20
